sensor_id;sensor_type;location;lat;lon;timestamp;P1;durP1;ratioP1;P2;durP2;ratioP2
26377;SDS011;14078;50.974;6.786;2022-07-25T00:00:26;5.63;;;4.03;;
26377;SDS011;14078;50.974;6.786;2022-07-25T00:02:52;4.38;;;3.90;;
26377;SDS011;14078;50.974;6.786;2022-07-25T00:05:19;6.13;;;4.20;;
26377;SDS011;14078;50.974;6.786;2022-07-25T00:07:47;7.78;;;4.88;;
26377;SDS011;14078;50.974;6.786;2022-07-25T00:10:14;8.25;;;4.97;;
26377;SDS011;14078;50.974;6.786;2022-07-25T00:12:41;7.63;;;5.10;;
26377;SDS011;14078;50.974;6.786;2022-07-25T00:15:09;6.15;;;4.35;;
26377;SDS011;14078;50.974;6.786;2022-07-25T00:20:04;7.20;;;4.22;;
26377;SDS011;14078;50.974;6.786;2022-07-25T00:22:32;4.88;;;3.72;;
26377;SDS011;14078;50.974;6.786;2022-07-25T00:24:58;7.90;;;5.18;;
26377;SDS011;14078;50.974;6.786;2022-07-25T00:27:25;6.85;;;4.00;;
26377;SDS011;14078;50.974;6.786;2022-07-25T00:29:52;4.88;;;3.58;;
26377;SDS011;14078;50.974;6.786;2022-07-25T00:32:20;5.43;;;3.92;;
26377;SDS011;14078;50.974;6.786;2022-07-25T00:34:47;5.50;;;4.35;;
26377;SDS011;14078;50.974;6.786;2022-07-25T00:37:13;5.82;;;3.92;;
26377;SDS011;14078;50.974;6.786;2022-07-25T00:39:40;6.32;;;3.90;;
26377;SDS011;14078;50.974;6.786;2022-07-25T00:42:07;5.28;;;4.47;;
26377;SDS011;14078;50.974;6.786;2022-07-25T00:44:33;6.28;;;4.13;;
26377;SDS011;14078;50.974;6.786;2022-07-25T00:47:00;7.70;;;4.10;;
26377;SDS011;14078;50.974;6.786;2022-07-25T00:49:28;5.25;;;4.43;;
26377;SDS011;14078;50.974;6.786;2022-07-25T00:51:55;6.75;;;4.18;;
26377;SDS011;14078;50.974;6.786;2022-07-25T00:54:22;4.68;;;3.25;;
26377;SDS011;14078;50.974;6.786;2022-07-25T00:56:49;6.28;;;4.15;;
26377;SDS011;14078;50.974;6.786;2022-07-25T00:59:16;5.55;;;4.13;;
26377;SDS011;14078;50.974;6.786;2022-07-25T01:01:42;9.02;;;4.97;;
26377;SDS011;14078;50.974;6.786;2022-07-25T01:04:11;7.03;;;4.35;;
26377;SDS011;14078;50.974;6.786;2022-07-25T01:09:07;7.03;;;3.92;;
26377;SDS011;14078;50.974;6.786;2022-07-25T01:11:34;8.27;;;5.07;;
26377;SDS011;14078;50.974;6.786;2022-07-25T01:14:00;4.97;;;4.28;;
26377;SDS011;14078;50.974;6.786;2022-07-25T01:16:27;7.60;;;3.78;;
26377;SDS011;14078;50.974;6.786;2022-07-25T01:18:54;6.97;;;5.07;;
26377;SDS011;14078;50.974;6.786;2022-07-25T01:21:23;5.72;;;4.43;;
26377;SDS011;14078;50.974;6.786;2022-07-25T01:45:51;4.70;;;3.58;;
26377;SDS011;14078;50.974;6.786;2022-07-25T01:48:18;3.90;;;3.50;;
26377;SDS011;14078;50.974;6.786;2022-07-25T01:50:44;4.78;;;4.00;;
26377;SDS011;14078;50.974;6.786;2022-07-25T01:55:39;4.13;;;3.72;;
26377;SDS011;14078;50.974;6.786;2022-07-25T01:58:06;4.97;;;4.27;;
26377;SDS011;14078;50.974;6.786;2022-07-25T02:02:59;5.50;;;3.90;;
26377;SDS011;14078;50.974;6.786;2022-07-25T02:08:10;4.25;;;3.63;;
26377;SDS011;14078;50.974;6.786;2022-07-25T02:10:36;4.45;;;3.58;;
26377;SDS011;14078;50.974;6.786;2022-07-25T02:13:05;5.18;;;4.05;;
26377;SDS011;14078;50.974;6.786;2022-07-25T02:15:31;4.15;;;3.60;;
26377;SDS011;14078;50.974;6.786;2022-07-25T02:17:58;5.30;;;3.72;;
26377;SDS011;14078;50.974;6.786;2022-07-25T02:20:25;4.00;;;3.60;;
26377;SDS011;14078;50.974;6.786;2022-07-25T02:22:51;5.55;;;4.40;;
26377;SDS011;14078;50.974;6.786;2022-07-25T02:25:18;4.57;;;4.18;;
26377;SDS011;14078;50.974;6.786;2022-07-25T02:27:46;12.68;;;5.28;;
26377;SDS011;14078;50.974;6.786;2022-07-25T02:30:13;4.87;;;3.77;;
26377;SDS011;14078;50.974;6.786;2022-07-25T02:37:33;4.07;;;3.28;;
26377;SDS011;14078;50.974;6.786;2022-07-25T02:40:00;5.93;;;3.67;;
26377;SDS011;14078;50.974;6.786;2022-07-25T02:42:27;4.88;;;3.75;;
26377;SDS011;14078;50.974;6.786;2022-07-25T02:44:55;5.13;;;4.15;;
26377;SDS011;14078;50.974;6.786;2022-07-25T02:49:48;4.65;;;3.72;;
26377;SDS011;14078;50.974;6.786;2022-07-25T02:52:15;4.68;;;3.83;;
26377;SDS011;14078;50.974;6.786;2022-07-25T02:54:42;4.35;;;3.58;;
26377;SDS011;14078;50.974;6.786;2022-07-25T02:57:08;4.88;;;4.03;;
26377;SDS011;14078;50.974;6.786;2022-07-25T02:59:35;5.63;;;4.28;;
26377;SDS011;14078;50.974;6.786;2022-07-25T03:02:03;4.80;;;4.00;;
26377;SDS011;14078;50.974;6.786;2022-07-25T03:04:30;4.25;;;3.30;;
26377;SDS011;14078;50.974;6.786;2022-07-25T03:06:57;6.90;;;4.18;;
26377;SDS011;14078;50.974;6.786;2022-07-25T03:09:24;6.40;;;3.90;;
26377;SDS011;14078;50.974;6.786;2022-07-25T03:11:51;5.22;;;3.97;;
26377;SDS011;14078;50.974;6.786;2022-07-25T03:14:17;5.07;;;3.88;;
26377;SDS011;14078;50.974;6.786;2022-07-25T03:19:12;5.28;;;4.43;;
26377;SDS011;14078;50.974;6.786;2022-07-25T03:21:39;6.00;;;3.90;;
26377;SDS011;14078;50.974;6.786;2022-07-25T03:24:06;4.85;;;4.03;;
26377;SDS011;14078;50.974;6.786;2022-07-25T03:26:32;6.20;;;4.03;;
26377;SDS011;14078;50.974;6.786;2022-07-25T03:28:59;5.38;;;4.22;;
26377;SDS011;14078;50.974;6.786;2022-07-25T03:31:26;4.82;;;4.38;;
26377;SDS011;14078;50.974;6.786;2022-07-25T03:33:53;4.95;;;4.22;;
26377;SDS011;14078;50.974;6.786;2022-07-25T03:36:21;5.32;;;4.43;;
26377;SDS011;14078;50.974;6.786;2022-07-25T03:38:48;4.95;;;4.10;;
26377;SDS011;14078;50.974;6.786;2022-07-25T03:41:14;4.03;;;3.63;;
26377;SDS011;14078;50.974;6.786;2022-07-25T03:43:41;6.43;;;4.32;;
26377;SDS011;14078;50.974;6.786;2022-07-25T03:46:08;4.88;;;3.67;;
26377;SDS011;14078;50.974;6.786;2022-07-25T03:48:34;4.40;;;4.00;;
26377;SDS011;14078;50.974;6.786;2022-07-25T03:51:01;6.43;;;4.53;;
26377;SDS011;14078;50.974;6.786;2022-07-25T03:53:29;5.20;;;4.22;;
26377;SDS011;14078;50.974;6.786;2022-07-25T03:55:56;5.72;;;4.82;;
26377;SDS011;14078;50.974;6.786;2022-07-25T03:58:23;4.60;;;3.58;;
26377;SDS011;14078;50.974;6.786;2022-07-25T04:00:50;8.15;;;4.50;;
26377;SDS011;14078;50.974;6.786;2022-07-25T04:05:43;6.43;;;3.92;;
26377;SDS011;14078;50.974;6.786;2022-07-25T04:08:10;5.85;;;3.80;;
26377;SDS011;14078;50.974;6.786;2022-07-25T04:10:38;5.05;;;4.32;;
26377;SDS011;14078;50.974;6.786;2022-07-25T04:13:04;4.22;;;3.47;;
26377;SDS011;14078;50.974;6.786;2022-07-25T04:17:57;3.80;;;3.50;;
26377;SDS011;14078;50.974;6.786;2022-07-25T04:20:24;6.13;;;3.97;;
26377;SDS011;14078;50.974;6.786;2022-07-25T04:22:51;5.32;;;3.97;;
26377;SDS011;14078;50.974;6.786;2022-07-25T04:25:17;4.45;;;3.72;;
26377;SDS011;14078;50.974;6.786;2022-07-25T04:27:45;4.95;;;4.40;;
26377;SDS011;14078;50.974;6.786;2022-07-25T04:30:12;4.35;;;3.80;;
26377;SDS011;14078;50.974;6.786;2022-07-25T04:32:39;10.75;;;4.30;;
26377;SDS011;14078;50.974;6.786;2022-07-25T04:35:06;5.30;;;4.80;;
26377;SDS011;14078;50.974;6.786;2022-07-25T04:37:34;4.63;;;3.95;;
26377;SDS011;14078;50.974;6.786;2022-07-25T04:40:01;5.45;;;4.63;;
26377;SDS011;14078;50.974;6.786;2022-07-25T04:42:28;5.95;;;4.20;;
26377;SDS011;14078;50.974;6.786;2022-07-25T04:44:57;4.15;;;3.75;;
26377;SDS011;14078;50.974;6.786;2022-07-25T04:47:23;5.07;;;4.47;;
26377;SDS011;14078;50.974;6.786;2022-07-25T04:49:50;6.82;;;4.57;;
26377;SDS011;14078;50.974;6.786;2022-07-25T04:52:17;4.40;;;4.00;;
26377;SDS011;14078;50.974;6.786;2022-07-25T04:54:43;4.05;;;3.75;;
26377;SDS011;14078;50.974;6.786;2022-07-25T04:57:10;4.25;;;3.85;;
26377;SDS011;14078;50.974;6.786;2022-07-25T04:59:37;5.23;;;4.30;;
26377;SDS011;14078;50.974;6.786;2022-07-25T05:02:05;4.28;;;3.88;;
26377;SDS011;14078;50.974;6.786;2022-07-25T05:04:32;4.22;;;3.47;;
26377;SDS011;14078;50.974;6.786;2022-07-25T05:06:58;3.92;;;3.60;;
26377;SDS011;14078;50.974;6.786;2022-07-25T05:09:25;3.40;;;2.65;;
26377;SDS011;14078;50.974;6.786;2022-07-25T05:11:52;4.07;;;3.28;;
26377;SDS011;14078;50.974;6.786;2022-07-25T05:14:18;5.38;;;3.63;;
26377;SDS011;14078;50.974;6.786;2022-07-25T05:16:45;4.80;;;3.50;;
26377;SDS011;14078;50.974;6.786;2022-07-25T05:19:13;4.55;;;4.15;;
26377;SDS011;14078;50.974;6.786;2022-07-25T05:21:40;4.88;;;3.65;;
26377;SDS011;14078;50.974;6.786;2022-07-25T05:24:07;4.10;;;3.20;;
26377;SDS011;14078;50.974;6.786;2022-07-25T05:26:33;4.43;;;3.30;;
26377;SDS011;14078;50.974;6.786;2022-07-25T05:29:00;4.53;;;3.63;;
26377;SDS011;14078;50.974;6.786;2022-07-25T05:31:27;4.28;;;2.97;;
26377;SDS011;14078;50.974;6.786;2022-07-25T05:33:54;3.65;;;3.28;;
26377;SDS011;14078;50.974;6.786;2022-07-25T05:36:22;4.28;;;3.40;;
26377;SDS011;14078;50.974;6.786;2022-07-25T05:38:48;4.40;;;3.47;;
26377;SDS011;14078;50.974;6.786;2022-07-25T05:41:15;5.38;;;3.55;;
26377;SDS011;14078;50.974;6.786;2022-07-25T05:43:42;4.28;;;3.35;;
26377;SDS011;14078;50.974;6.786;2022-07-25T05:46:11;4.25;;;3.42;;
26377;SDS011;14078;50.974;6.786;2022-07-25T05:48:37;5.15;;;3.40;;
26377;SDS011;14078;50.974;6.786;2022-07-25T05:51:04;7.72;;;3.63;;
26377;SDS011;14078;50.974;6.786;2022-07-25T05:53:32;7.72;;;3.63;;
26377;SDS011;14078;50.974;6.786;2022-07-25T05:55:59;4.13;;;3.25;;
26377;SDS011;14078;50.974;6.786;2022-07-25T05:58:26;4.22;;;3.80;;
26377;SDS011;14078;50.974;6.786;2022-07-25T06:00:52;3.50;;;3.20;;
26377;SDS011;14078;50.974;6.786;2022-07-25T06:03:19;4.45;;;3.35;;
26377;SDS011;14078;50.974;6.786;2022-07-25T06:05:46;7.38;;;4.07;;
26377;SDS011;14078;50.974;6.786;2022-07-25T06:08:13;4.40;;;4.00;;
26377;SDS011;14078;50.974;6.786;2022-07-25T06:10:42;3.78;;;3.38;;
26377;SDS011;14078;50.974;6.786;2022-07-25T06:13:08;3.90;;;3.15;;
26377;SDS011;14078;50.974;6.786;2022-07-25T06:15:35;4.13;;;3.38;;
26377;SDS011;14078;50.974;6.786;2022-07-25T06:18:02;6.13;;;3.88;;
26377;SDS011;14078;50.974;6.786;2022-07-25T06:20:29;6.03;;;3.63;;
26377;SDS011;14078;50.974;6.786;2022-07-25T06:22:55;4.15;;;3.50;;
26377;SDS011;14078;50.974;6.786;2022-07-25T06:25:22;4.57;;;4.07;;
26377;SDS011;14078;50.974;6.786;2022-07-25T06:27:50;3.90;;;3.03;;
26377;SDS011;14078;50.974;6.786;2022-07-25T06:30:17;5.53;;;3.45;;
26377;SDS011;14078;50.974;6.786;2022-07-25T06:32:43;5.50;;;3.50;;
26377;SDS011;14078;50.974;6.786;2022-07-25T06:35:10;3.67;;;3.15;;
26377;SDS011;14078;50.974;6.786;2022-07-25T06:37:37;4.18;;;3.00;;
26377;SDS011;14078;50.974;6.786;2022-07-25T06:40:04;5.63;;;3.28;;
26377;SDS011;14078;50.974;6.786;2022-07-25T06:42:32;3.95;;;3.58;;
26377;SDS011;14078;50.974;6.786;2022-07-25T06:45:04;8.85;;;3.35;;
26377;SDS011;14078;50.974;6.786;2022-07-25T06:47:33;7.25;;;3.72;;
26377;SDS011;14078;50.974;6.786;2022-07-25T06:50:00;5.38;;;4.00;;
26377;SDS011;14078;50.974;6.786;2022-07-25T06:52:27;3.92;;;3.28;;
26377;SDS011;14078;50.974;6.786;2022-07-25T06:54:54;5.80;;;3.10;;
26377;SDS011;14078;50.974;6.786;2022-07-25T06:57:20;4.70;;;3.42;;
26377;SDS011;14078;50.974;6.786;2022-07-25T06:59:47;3.20;;;2.83;;
26377;SDS011;14078;50.974;6.786;2022-07-25T07:02:15;3.80;;;3.05;;
26377;SDS011;14078;50.974;6.786;2022-07-25T07:04:42;6.20;;;4.00;;
26377;SDS011;14078;50.974;6.786;2022-07-25T07:07:09;4.80;;;3.30;;
26377;SDS011;14078;50.974;6.786;2022-07-25T07:09:36;4.35;;;3.92;;
26377;SDS011;14078;50.974;6.786;2022-07-25T07:12:03;3.97;;;3.42;;
26377;SDS011;14078;50.974;6.786;2022-07-25T07:14:29;3.75;;;3.38;;
26377;SDS011;14078;50.974;6.786;2022-07-25T07:16:56;4.43;;;3.40;;
26377;SDS011;14078;50.974;6.786;2022-07-25T07:19:24;4.70;;;3.40;;
26377;SDS011;14078;50.974;6.786;2022-07-25T07:21:51;4.53;;;3.10;;
26377;SDS011;14078;50.974;6.786;2022-07-25T07:24:18;5.07;;;3.20;;
26377;SDS011;14078;50.974;6.786;2022-07-25T07:26:44;3.97;;;3.55;;
26377;SDS011;14078;50.974;6.786;2022-07-25T07:29:11;3.47;;;3.10;;
26377;SDS011;14078;50.974;6.786;2022-07-25T07:31:38;4.82;;;3.80;;
26377;SDS011;14078;50.974;6.786;2022-07-25T07:34:04;5.50;;;3.67;;
26377;SDS011;14078;50.974;6.786;2022-07-25T07:36:33;4.32;;;3.50;;
26377;SDS011;14078;50.974;6.786;2022-07-25T07:39:00;6.65;;;3.70;;
26377;SDS011;14078;50.974;6.786;2022-07-25T07:41:27;4.40;;;3.00;;
26377;SDS011;14078;50.974;6.786;2022-07-25T07:43:53;5.40;;;3.70;;
26377;SDS011;14078;50.974;6.786;2022-07-25T07:46:20;3.63;;;3.33;;
26377;SDS011;14078;50.974;6.786;2022-07-25T07:48:47;3.38;;;3.08;;
26377;SDS011;14078;50.974;6.786;2022-07-25T07:51:13;3.42;;;3.13;;
26377;SDS011;14078;50.974;6.786;2022-07-25T07:53:41;5.30;;;3.13;;
26377;SDS011;14078;50.974;6.786;2022-07-25T07:56:26;3.72;;;3.28;;
26377;SDS011;14078;50.974;6.786;2022-07-25T07:58:52;3.88;;;3.20;;
26377;SDS011;14078;50.974;6.786;2022-07-25T08:01:19;4.82;;;3.47;;
26377;SDS011;14078;50.974;6.786;2022-07-25T08:03:46;3.97;;;3.65;;
26377;SDS011;14078;50.974;6.786;2022-07-25T08:06:12;5.38;;;3.15;;
26377;SDS011;14078;50.974;6.786;2022-07-25T08:08:41;3.92;;;3.53;;
26377;SDS011;14078;50.974;6.786;2022-07-25T08:11:08;4.20;;;3.00;;
26377;SDS011;14078;50.974;6.786;2022-07-25T08:13:34;5.57;;;3.58;;
26377;SDS011;14078;50.974;6.786;2022-07-25T08:16:02;3.30;;;3.03;;
26377;SDS011;14078;50.974;6.786;2022-07-25T08:18:29;3.90;;;3.60;;
26377;SDS011;14078;50.974;6.786;2022-07-25T08:20:58;4.68;;;3.35;;
26377;SDS011;14078;50.974;6.786;2022-07-25T08:23:26;3.60;;;3.15;;
26377;SDS011;14078;50.974;6.786;2022-07-25T08:25:56;4.30;;;3.22;;
26377;SDS011;14078;50.974;6.786;2022-07-25T08:28:23;4.22;;;3.83;;
26377;SDS011;14078;50.974;6.786;2022-07-25T08:33:16;6.00;;;3.10;;
26377;SDS011;14078;50.974;6.786;2022-07-25T08:35:47;3.88;;;2.95;;
26377;SDS011;14078;50.974;6.786;2022-07-25T08:38:15;3.65;;;3.28;;
26377;SDS011;14078;50.974;6.786;2022-07-25T08:40:43;3.42;;;2.67;;
26377;SDS011;14078;50.974;6.786;2022-07-25T08:43:12;4.72;;;4.10;;
26377;SDS011;14078;50.974;6.786;2022-07-25T08:45:41;5.68;;;3.90;;
26377;SDS011;14078;50.974;6.786;2022-07-25T08:48:09;4.20;;;3.03;;
26377;SDS011;14078;50.974;6.786;2022-07-25T08:50:37;3.53;;;3.10;;
26377;SDS011;14078;50.974;6.786;2022-07-25T08:53:04;4.65;;;3.85;;
26377;SDS011;14078;50.974;6.786;2022-07-25T08:55:31;7.50;;;3.65;;
26377;SDS011;14078;50.974;6.786;2022-07-25T08:57:57;5.95;;;3.80;;
26377;SDS011;14078;50.974;6.786;2022-07-25T09:00:26;5.07;;;3.90;;
26377;SDS011;14078;50.974;6.786;2022-07-25T09:02:54;6.25;;;3.70;;
26377;SDS011;14078;50.974;6.786;2022-07-25T09:07:49;4.03;;;3.63;;
26377;SDS011;14078;50.974;6.786;2022-07-25T09:10:18;4.15;;;3.75;;
26377;SDS011;14078;50.974;6.786;2022-07-25T09:12:52;6.03;;;4.35;;
26377;SDS011;14078;50.974;6.786;2022-07-25T09:15:23;4.88;;;3.90;;
26377;SDS011;14078;50.974;6.786;2022-07-25T09:17:53;5.45;;;3.45;;
26377;SDS011;14078;50.974;6.786;2022-07-25T09:20:20;4.47;;;3.00;;
26377;SDS011;14078;50.974;6.786;2022-07-25T09:22:47;4.82;;;3.08;;
26377;SDS011;14078;50.974;6.786;2022-07-25T09:25:21;4.10;;;3.50;;
26377;SDS011;14078;50.974;6.786;2022-07-25T09:27:50;3.88;;;3.30;;
26377;SDS011;14078;50.974;6.786;2022-07-25T09:30:17;6.32;;;3.92;;
26377;SDS011;14078;50.974;6.786;2022-07-25T09:32:45;3.92;;;3.50;;
26377;SDS011;14078;50.974;6.786;2022-07-25T09:35:12;3.90;;;2.95;;
26377;SDS011;14078;50.974;6.786;2022-07-25T09:37:39;3.88;;;3.47;;
26377;SDS011;14078;50.974;6.786;2022-07-25T09:40:15;4.47;;;3.17;;
26377;SDS011;14078;50.974;6.786;2022-07-25T09:42:49;3.58;;;3.25;;
26377;SDS011;14078;50.974;6.786;2022-07-25T09:45:16;4.85;;;3.85;;
26377;SDS011;14078;50.974;6.786;2022-07-25T09:47:51;3.55;;;3.13;;
26377;SDS011;14078;50.974;6.786;2022-07-25T09:50:19;3.38;;;2.80;;
26377;SDS011;14078;50.974;6.786;2022-07-25T09:52:48;4.65;;;3.75;;
26377;SDS011;14078;50.974;6.786;2022-07-25T09:55:16;3.30;;;2.83;;
26377;SDS011;14078;50.974;6.786;2022-07-25T09:57:44;5.50;;;3.90;;
26377;SDS011;14078;50.974;6.786;2022-07-25T10:00:11;5.00;;;3.53;;
26377;SDS011;14078;50.974;6.786;2022-07-25T10:02:40;5.75;;;3.70;;
26377;SDS011;14078;50.974;6.786;2022-07-25T10:05:15;4.22;;;3.83;;
26377;SDS011;14078;50.974;6.786;2022-07-25T10:07:46;4.75;;;3.42;;
26377;SDS011;14078;50.974;6.786;2022-07-25T10:10:19;8.70;;;3.05;;
26377;SDS011;14078;50.974;6.786;2022-07-25T10:12:59;5.13;;;3.47;;
26377;SDS011;14078;50.974;6.786;2022-07-25T10:15:38;4.05;;;2.92;;
26377;SDS011;14078;50.974;6.786;2022-07-25T10:18:09;3.45;;;3.13;;
26377;SDS011;14078;50.974;6.786;2022-07-25T10:20:37;3.28;;;2.60;;
26377;SDS011;14078;50.974;6.786;2022-07-25T10:23:04;3.67;;;3.30;;
26377;SDS011;14078;50.974;6.786;2022-07-25T10:25:42;3.25;;;2.90;;
26377;SDS011;14078;50.974;6.786;2022-07-25T10:28:09;2.85;;;2.60;;
26377;SDS011;14078;50.974;6.786;2022-07-25T10:30:38;3.92;;;2.58;;
26377;SDS011;14078;50.974;6.786;2022-07-25T10:33:09;3.63;;;2.85;;
26377;SDS011;14078;50.974;6.786;2022-07-25T10:35:38;5.38;;;2.88;;
26377;SDS011;14078;50.974;6.786;2022-07-25T10:38:06;3.28;;;2.92;;
26377;SDS011;14078;50.974;6.786;2022-07-25T10:40:33;3.33;;;2.38;;
26377;SDS011;14078;50.974;6.786;2022-07-25T10:43:07;7.03;;;2.80;;
26377;SDS011;14078;50.974;6.786;2022-07-25T10:45:37;7.72;;;2.90;;
26377;SDS011;14078;50.974;6.786;2022-07-25T10:48:05;3.95;;;2.78;;
26377;SDS011;14078;50.974;6.786;2022-07-25T10:50:33;3.67;;;2.95;;
26377;SDS011;14078;50.974;6.786;2022-07-25T10:53:01;4.97;;;2.63;;
26377;SDS011;14078;50.974;6.786;2022-07-25T10:55:34;4.88;;;2.70;;
26377;SDS011;14078;50.974;6.786;2022-07-25T10:58:02;3.75;;;2.83;;
26377;SDS011;14078;50.974;6.786;2022-07-25T11:05:24;3.80;;;2.75;;
26377;SDS011;14078;50.974;6.786;2022-07-25T11:07:50;5.78;;;2.75;;
26377;SDS011;14078;50.974;6.786;2022-07-25T11:10:25;3.25;;;2.35;;
26377;SDS011;14078;50.974;6.786;2022-07-25T11:12:52;3.80;;;2.88;;
26377;SDS011;14078;50.974;6.786;2022-07-25T11:17:48;2.80;;;2.20;;
26377;SDS011;14078;50.974;6.786;2022-07-25T11:20:16;3.13;;;2.38;;
26377;SDS011;14078;50.974;6.786;2022-07-25T11:22:49;3.03;;;2.03;;
26377;SDS011;14078;50.974;6.786;2022-07-25T11:25:18;3.13;;;2.63;;
26377;SDS011;14078;50.974;6.786;2022-07-25T11:27:54;1.92;;;1.63;;
26377;SDS011;14078;50.974;6.786;2022-07-25T11:30:22;7.78;;;2.50;;
26377;SDS011;14078;50.974;6.786;2022-07-25T11:32:50;2.53;;;1.80;;
26377;SDS011;14078;50.974;6.786;2022-07-25T11:35:20;2.47;;;1.90;;
26377;SDS011;14078;50.974;6.786;2022-07-25T11:37:48;3.15;;;2.33;;
26377;SDS011;14078;50.974;6.786;2022-07-25T11:40:16;2.58;;;1.88;;
26377;SDS011;14078;50.974;6.786;2022-07-25T11:42:45;2.37;;;2.00;;
26377;SDS011;14078;50.974;6.786;2022-07-25T11:45:17;4.75;;;1.73;;
26377;SDS011;14078;50.974;6.786;2022-07-25T11:47:45;3.15;;;1.73;;
26377;SDS011;14078;50.974;6.786;2022-07-25T11:50:12;3.70;;;1.83;;
26377;SDS011;14078;50.974;6.786;2022-07-25T11:52:42;1.70;;;1.58;;
26377;SDS011;14078;50.974;6.786;2022-07-25T11:55:10;2.95;;;1.75;;
26377;SDS011;14078;50.974;6.786;2022-07-25T11:57:39;4.07;;;2.30;;
26377;SDS011;14078;50.974;6.786;2022-07-25T12:00:09;6.50;;;2.00;;
26377;SDS011;14078;50.974;6.786;2022-07-25T12:02:42;2.78;;;2.13;;
26377;SDS011;14078;50.974;6.786;2022-07-25T12:05:10;1.70;;;1.45;;
26377;SDS011;14078;50.974;6.786;2022-07-25T12:07:40;2.65;;;1.65;;
26377;SDS011;14078;50.974;6.786;2022-07-25T12:10:10;2.13;;;1.63;;
26377;SDS011;14078;50.974;6.786;2022-07-25T12:12:40;2.38;;;1.83;;
26377;SDS011;14078;50.974;6.786;2022-07-25T12:15:12;1.88;;;1.38;;
26377;SDS011;14078;50.974;6.786;2022-07-25T12:17:42;2.67;;;1.60;;
26377;SDS011;14078;50.974;6.786;2022-07-25T12:20:10;1.60;;;1.45;;
26377;SDS011;14078;50.974;6.786;2022-07-25T12:22:39;1.88;;;1.50;;
26377;SDS011;14078;50.974;6.786;2022-07-25T12:25:06;2.75;;;1.67;;
26377;SDS011;14078;50.974;6.786;2022-07-25T12:27:34;2.08;;;1.30;;
26377;SDS011;14078;50.974;6.786;2022-07-25T12:30:01;1.15;;;1.05;;
26377;SDS011;14078;50.974;6.786;2022-07-25T12:32:27;2.30;;;1.27;;
26377;SDS011;14078;50.974;6.786;2022-07-25T12:34:56;2.20;;;1.10;;
26377;SDS011;14078;50.974;6.786;2022-07-25T12:37:23;3.63;;;1.35;;
26377;SDS011;14078;50.974;6.786;2022-07-25T12:39:50;3.53;;;1.27;;
26377;SDS011;14078;50.974;6.786;2022-07-25T12:42:17;2.10;;;1.50;;
26377;SDS011;14078;50.974;6.786;2022-07-25T12:44:44;2.53;;;1.50;;
26377;SDS011;14078;50.974;6.786;2022-07-25T12:47:11;2.78;;;1.92;;
26377;SDS011;14078;50.974;6.786;2022-07-25T12:52:06;1.67;;;1.20;;
26377;SDS011;14078;50.974;6.786;2022-07-25T12:54:33;2.93;;;1.70;;
26377;SDS011;14078;50.974;6.786;2022-07-25T12:57:00;2.80;;;1.42;;
26377;SDS011;14078;50.974;6.786;2022-07-25T12:59:27;1.88;;;1.25;;
26377;SDS011;14078;50.974;6.786;2022-07-25T13:01:53;3.90;;;1.15;;
26377;SDS011;14078;50.974;6.786;2022-07-25T13:04:20;1.48;;;1.38;;
26377;SDS011;14078;50.974;6.786;2022-07-25T13:06:47;4.00;;;1.33;;
26377;SDS011;14078;50.974;6.786;2022-07-25T13:09:15;2.92;;;0.98;;
26377;SDS011;14078;50.974;6.786;2022-07-25T13:11:42;1.20;;;1.03;;
26377;SDS011;14078;50.974;6.786;2022-07-25T13:14:08;1.70;;;1.08;;
26377;SDS011;14078;50.974;6.786;2022-07-25T13:16:35;5.50;;;1.20;;
26377;SDS011;14078;50.974;6.786;2022-07-25T13:19:02;1.50;;;1.40;;
26377;SDS011;14078;50.974;6.786;2022-07-25T13:21:29;1.65;;;1.30;;
26377;SDS011;14078;50.974;6.786;2022-07-25T13:23:56;2.70;;;1.10;;
26377;SDS011;14078;50.974;6.786;2022-07-25T13:26:24;2.42;;;1.27;;
26377;SDS011;14078;50.974;6.786;2022-07-25T13:28:51;2.13;;;1.30;;
26377;SDS011;14078;50.974;6.786;2022-07-25T13:31:17;1.40;;;0.88;;
26377;SDS011;14078;50.974;6.786;2022-07-25T13:33:45;1.50;;;1.10;;
26377;SDS011;14078;50.974;6.786;2022-07-25T13:36:13;0.98;;;0.80;;
26377;SDS011;14078;50.974;6.786;2022-07-25T13:38:40;1.23;;;0.80;;
26377;SDS011;14078;50.974;6.786;2022-07-25T13:41:08;1.95;;;1.10;;
26377;SDS011;14078;50.974;6.786;2022-07-25T13:43:36;1.60;;;1.50;;
26377;SDS011;14078;50.974;6.786;2022-07-25T13:46:02;1.38;;;1.08;;
26377;SDS011;14078;50.974;6.786;2022-07-25T13:48:29;0.88;;;0.73;;
26377;SDS011;14078;50.974;6.786;2022-07-25T13:50:56;2.83;;;1.00;;
26377;SDS011;14078;50.974;6.786;2022-07-25T13:53:24;0.80;;;0.80;;
26377;SDS011;14078;50.974;6.786;2022-07-25T13:55:50;1.70;;;0.90;;
26377;SDS011;14078;50.974;6.786;2022-07-25T13:58:17;0.80;;;0.73;;
26377;SDS011;14078;50.974;6.786;2022-07-25T14:00:45;1.23;;;0.90;;
26377;SDS011;14078;50.974;6.786;2022-07-25T14:03:12;1.58;;;1.05;;
26377;SDS011;14078;50.974;6.786;2022-07-25T14:05:39;1.23;;;0.80;;
26377;SDS011;14078;50.974;6.786;2022-07-25T14:08:06;1.20;;;0.82;;
26377;SDS011;14078;50.974;6.786;2022-07-25T14:10:33;1.92;;;1.10;;
26377;SDS011;14078;50.974;6.786;2022-07-25T14:13:00;2.25;;;1.20;;
26377;SDS011;14078;50.974;6.786;2022-07-25T14:15:27;1.10;;;1.00;;
26377;SDS011;14078;50.974;6.786;2022-07-25T14:17:55;1.35;;;1.10;;
26377;SDS011;14078;50.974;6.786;2022-07-25T14:20:22;1.20;;;1.10;;
26377;SDS011;14078;50.974;6.786;2022-07-25T14:22:49;2.83;;;1.20;;
26377;SDS011;14078;50.974;6.786;2022-07-25T14:25:16;1.75;;;1.10;;
26377;SDS011;14078;50.974;6.786;2022-07-25T14:27:42;1.40;;;0.98;;
26377;SDS011;14078;50.974;6.786;2022-07-25T14:30:10;1.10;;;0.90;;
26377;SDS011;14078;50.974;6.786;2022-07-25T14:32:37;1.48;;;1.35;;
26377;SDS011;14078;50.974;6.786;2022-07-25T14:35:06;1.80;;;1.10;;
26377;SDS011;14078;50.974;6.786;2022-07-25T14:37:34;2.30;;;1.20;;
26377;SDS011;14078;50.974;6.786;2022-07-25T14:40:01;2.75;;;1.08;;
26377;SDS011;14078;50.974;6.786;2022-07-25T14:42:29;1.85;;;1.17;;
26377;SDS011;14078;50.974;6.786;2022-07-25T14:44:56;2.08;;;1.10;;
26377;SDS011;14078;50.974;6.786;2022-07-25T14:47:22;0.93;;;0.90;;
26377;SDS011;14078;50.974;6.786;2022-07-25T14:49:49;1.10;;;1.00;;
26377;SDS011;14078;50.974;6.786;2022-07-25T14:52:17;5.00;;;1.00;;
26377;SDS011;14078;50.974;6.786;2022-07-25T14:54:44;0.90;;;0.80;;
26377;SDS011;14078;50.974;6.786;2022-07-25T14:57:10;1.08;;;0.93;;
26377;SDS011;14078;50.974;6.786;2022-07-25T14:59:37;1.25;;;1.00;;
26377;SDS011;14078;50.974;6.786;2022-07-25T15:02:04;2.17;;;1.30;;
26377;SDS011;14078;50.974;6.786;2022-07-25T15:04:31;1.42;;;1.00;;
26377;SDS011;14078;50.974;6.786;2022-07-25T15:06:58;1.20;;;1.10;;
26377;SDS011;14078;50.974;6.786;2022-07-25T15:09:26;4.35;;;1.30;;
26377;SDS011;14078;50.974;6.786;2022-07-25T15:11:53;1.90;;;1.30;;
26377;SDS011;14078;50.974;6.786;2022-07-25T15:14:20;3.17;;;1.08;;
26377;SDS011;14078;50.974;6.786;2022-07-25T15:16:46;1.50;;;0.90;;
26377;SDS011;14078;50.974;6.786;2022-07-25T15:19:13;1.30;;;1.05;;
26377;SDS011;14078;50.974;6.786;2022-07-25T15:21:40;2.03;;;1.02;;
26377;SDS011;14078;50.974;6.786;2022-07-25T15:24:06;4.15;;;1.10;;
26377;SDS011;14078;50.974;6.786;2022-07-25T15:26:34;1.58;;;1.30;;
26377;SDS011;14078;50.974;6.786;2022-07-25T15:29:01;2.10;;;1.03;;
26377;SDS011;14078;50.974;6.786;2022-07-25T15:31:31;2.58;;;0.98;;
26377;SDS011;14078;50.974;6.786;2022-07-25T15:33:58;1.63;;;1.48;;
26377;SDS011;14078;50.974;6.786;2022-07-25T15:36:24;4.20;;;0.90;;
26377;SDS011;14078;50.974;6.786;2022-07-25T15:38:51;1.00;;;0.80;;
26377;SDS011;14078;50.974;6.786;2022-07-25T15:41:18;1.42;;;0.85;;
26377;SDS011;14078;50.974;6.786;2022-07-25T15:43:46;3.05;;;1.20;;
26377;SDS011;14078;50.974;6.786;2022-07-25T15:46:12;3.15;;;1.20;;
26377;SDS011;14078;50.974;6.786;2022-07-25T15:48:39;1.35;;;0.90;;
26377;SDS011;14078;50.974;6.786;2022-07-25T15:51:08;1.35;;;1.02;;
26377;SDS011;14078;50.974;6.786;2022-07-25T15:53:35;0.82;;;0.80;;